Newhall, IA (52315)

5:29 AM CDT on September 02, 2014 (GMT -0500)
KIASHELL3 | Change Station
CLOSE
Current Station
Personal Weather Station
Location: Shellsburg, IA
Elevation: 869 ft
Nearby Weather Stations
Active Advisory: Special Statement

Elev 869 ft 42.09 °N, 91.92 °W | Updated 8 minutes ago

Partly Cloudy
Partly Cloudy
63.1 °F
Feels Like 63.1 °F
N
6.8
Wind Variable Wind from WNW

Today
High -- | Low -- °F
--% Chance of Precip.
Yesterday
High -- | Low -- °F
Precip. -- in
6:34 AM 7:39 PM
Waxing Crescent, 50% visible
Pressure 29.86 in
Visibility 8.0 miles
Clouds Clear
Dew Point 62 °F
Humidity 97%
Rainfall 0.00 in
Snow Depth Not available.
UV 0 out of 12
Pollen 3.70 out of 12
Air Quality Not available.
Flu Activity Not available.
METAR KCID 020952Z 00000KT 8SM CLR 16/16 A2987 RMK AO2 SLP110 T01610161 $

More Conditions Fewer Conditions

Pressure 29.86 in
Visibility 8.0 miles
Clouds Clear
Dew Point 62 °F
Humidity 97%
Rainfall 0.00 in
Snow Depth Not available.
UV 0 out of 12
Pollen 3.70 out of 12
Air Quality Not available.
Flu Activity Not available.
METAR KCID 020952Z 00000KT 8SM CLR 16/16 A2987 RMK AO2 SLP110 T01610161 $

More Conditions Fewer Conditions

10-Day Weather Forecast

Almanac

Astronomy

Sep. 02, 2014 Rise Set
Actual Time 6:34 AM CDT 7:39 PM CDT
Civil Twilight 6:05 AM CDT 8:08 PM CDT
Nautical Twilight 5:31 AM CDT 8:42 PM CDT
Astronomical Twilight 4:55 AM CDT 9:18 PM CDT
Moon 2:26 PM CDT No Moon Set
Length of Visible Light 14h 02m
Length of Day
13h 05m
Tomorrow will be 2m 44s shorter.
Waxing Crescent, 50% of the Moon is Illuminated
Today
Waxing Crescent
Sep 2
First Quarter
Sep 8
Full
Sep 15
Last Quarter
Sep 24
New

Today's Extremes

State Highs State Lows

Community

WunderPhotos

Upload Photos

1,749,611 photos uploaded!

WunderBlogs® & News

Nearby

Snow Depth

Station Depth Elevation
No new snow has been reported.

Earthquake Activity

City Distance Mag. Time & Date
No recent earthquake activity has been reported nearby.
Minimum magnitude displayed is 2.5.

Coastal Water Temperatures

Place Temperature
No Stations Reporting

Nearby Weather Stations